Kuressaare, Estonia

4:40 PM EEST on July 30, 2016 (GMT +0300)
Kuressaare | | Change Station

Elev 13 ft 58.23 °N, 22.51 °E | Updated 50 minutes ago

Partly Cloudy
Partly Cloudy
73 °F
Feels Like 73 °F
N
9
Wind Variable Wind from WSW

Today
High -- | Low -- °F
--% Chance of Precip.
Yesterday
High -- | Low -- °F
Precip. -- in
Pressure 29.74 in
Visibility 6.2 miles
Clouds Few 2400 ft
Dew Point 63 °F
Humidity 69%
Rainfall 0.00 in
Snow Depth Not available.
5:18 AM 9:53 PM
Waning Crescent, 13% visible
METAR EEKE 301250Z AUTO 24008KT 200V290 9999NDV FEW024 23/17 Q1007
Pressure 29.74 in
Visibility 6.2 miles
Clouds Few 2400 ft
Dew Point 63 °F
Humidity 69%
Rainfall 0.00 in
Snow Depth Not available.
5:18 AM 9:53 PM
Waning Crescent, 13% visible
METAR EEKE 301250Z AUTO 24008KT 200V290 9999NDV FEW024 23/17 Q1007

10-Day Weather Forecast

×

Almanac

Astronomy

Jul. 30, 2016 Rise Set
Actual Time
Civil Twilight
Nautical Twilight
Astronomical Twilight
Moon
Length of Visible Light
Length of Day
Tomorrow will be .
, % of the Moon is Illuminated

Today's Extremes

Country Highs Country Lows

Community

WunderPhotos

Upload Photos

1,928,556 photos uploaded!

WunderBlog® & News

Nearby

Air Quality

  Air Quality AQ Index Pollutant
Not available.

Snow Depth

Station Depth Elevation

Earthquake Activity

City Distance Mag. Time & Date
Minimum magnitude displayed is 2.5.

Coastal Water Temperatures

Place Temperature

Stations

Nearby Weather Stations

Station Location Temp. Windchill Dew Point Humidity Wind Precip. Elev Updated Type